KCDC/CDC METAR and TAF weather

Enter ICAO airport designator
Station Type Date Time Source
KCDC METAR 2020/07/14 16:53 UTC NOAA

KCDC 141653Z AUTO 22012G17KT 10SM CLR 31/01 A3010 RMK AO2 SLP095 T03110011


Station Type Date Time Source
KCDC Decoded METAR 2020/07/14 16:53 UTC NOAA

CEDAR CITY MUN AIRPORT, UT, United States (KCDC) 37-42N 113-06W 1714M
Jul 14, 2020 - 12:53 PM EDT / 2020.07.14 1653 UTC
Wind: from the SW (220 degrees) at 14 MPH (12 KT) gusting to 20 MPH (17 KT):0
Visibility: 10 mile(s):0
Sky conditions: clear
Temperature: 88.0 F (31.1 C)
Dew Point: 34.0 F (1.1 C)
Relative Humidity: 14%
Pressure (altimeter): 30.1 in. Hg (1019 hPa)
ob: KCDC 141653Z AUTO 22012G17KT 10SM CLR 31/01 A3010 RMK AO2 SLP095 T03110011
cycle: 17

Station Type Date Time Source
KCDC TAF 2020/07/14 18:40 UTC NOAA

TAF KCDC 141740Z 1418/1518 21013G22KT P6SM FEW120
FM150300 18008KT P6SM SKC
FM151700 23007KT P6SM FEW150

Example: see airport list